createdAt,value
2023-04-15T00:00:01.458Z,8.5
2023-04-15T00:05:01.072Z,7.6
2023-04-15T00:10:01.057Z,7.3
2023-04-15T00:15:02.368Z,7.6
2023-04-15T00:20:02.735Z,6.4
2023-04-15T00:30:01.642Z,6.6
2023-04-15T00:40:01.112Z,6.0
2023-04-15T00:45:01.682Z,6.0
2023-04-15T00:50:01.240Z,6.3
2023-04-15T00:55:01.077Z,6.2
2023-04-15T01:00:01.780Z,5.9
2023-04-15T01:05:01.164Z,6.4
2023-04-15T01:10:02.583Z,7.1
2023-04-15T01:15:01.717Z,7.1
2023-04-15T01:20:01.114Z,7.2
2023-04-15T01:25:01.076Z,7.9
2023-04-15T01:30:01.672Z,7.9
2023-04-15T01:35:01.071Z,7.2
2023-04-15T01:45:02.121Z,7.1
2023-04-15T01:50:01.120Z,7.3
2023-04-15T01:55:01.677Z,8.1
2023-04-15T02:00:01.898Z,9.3
2023-04-15T02:05:01.077Z,9.6
2023-04-15T02:10:01.114Z,9.8
2023-04-15T02:15:01.618Z,9.8
2023-04-15T02:30:02.366Z,9.9
2023-04-15T02:35:01.088Z,10.4
2023-04-15T02:40:01.078Z,10.0
2023-04-15T02:45:01.664Z,9.5
2023-04-15T02:50:01.098Z,9.3
2023-04-15T02:55:01.051Z,9.6
2023-04-15T03:00:02.758Z,8.4
2023-04-15T03:10:01.194Z,9.3
2023-04-15T03:15:01.534Z,9.1
2023-04-15T03:20:01.084Z,9.4
2023-04-15T03:25:01.051Z,10.5
2023-04-15T03:30:01.857Z,10.6
2023-04-15T03:35:01.054Z,10.0
2023-04-15T03:40:01.110Z,10.2
2023-04-15T03:45:01.484Z,9.0
2023-04-15T03:50:01.108Z,8.2
2023-04-15T03:55:01.057Z,8.3
2023-04-15T04:00:03.330Z,8.3
2023-04-15T04:10:01.120Z,8.9
2023-04-15T04:15:01.480Z,9.4
2023-04-15T04:25:01.078Z,10.1
2023-04-15T04:30:01.922Z,10.8
2023-04-15T04:35:01.073Z,11.4
2023-04-15T04:40:01.097Z,11.8
2023-04-15T04:45:01.604Z,12.2
2023-04-15T04:50:01.110Z,12.5
2023-04-15T04:55:01.060Z,12.6
2023-04-15T05:00:02.453Z,13.4
2023-04-15T05:05:01.061Z,14.3
2023-04-15T05:10:01.088Z,15.8
2023-04-15T05:15:01.836Z,16.7
2023-04-15T05:20:01.124Z,16.9
2023-04-15T05:25:01.089Z,16.3
2023-04-15T05:30:01.932Z,15.8
2023-04-15T05:35:01.067Z,14.8
2023-04-15T05:40:01.079Z,14.2
2023-04-15T05:45:02.686Z,13.9
2023-04-15T05:50:01.199Z,14.4
2023-04-15T05:55:01.064Z,13.8
2023-04-15T06:00:01.848Z,13.8
2023-04-15T06:05:01.246Z,13.6
2023-04-15T06:10:01.657Z,13.4
2023-04-15T06:15:01.477Z,13.6
2023-04-15T06:20:01.094Z,14.8
2023-04-15T06:25:01.091Z,15.6
2023-04-15T06:30:01.735Z,14.6
2023-04-15T06:35:01.070Z,15.4
2023-04-15T06:40:01.063Z,14.4
2023-04-15T06:45:01.981Z,13.2
2023-04-15T06:50:01.079Z,11.9
2023-04-15T06:55:01.103Z,12.0
2023-04-15T07:00:01.608Z,9.3
2023-04-15T07:05:01.059Z,8.0
2023-04-15T07:10:01.114Z,7.1
2023-04-15T07:15:01.558Z,5.6
2023-04-15T07:20:01.062Z,3.3
2023-04-15T07:25:01.076Z,3.1
2023-04-15T07:30:01.884Z,2.8
2023-04-15T07:35:01.046Z,2.0
2023-04-15T07:40:01.060Z,1.4
2023-04-15T07:45:01.726Z,1.4
2023-04-15T07:50:01.157Z,1.2
2023-04-15T07:55:01.651Z,0.6
2023-04-15T08:00:02.629Z,0.2
2023-04-15T08:05:01.097Z,0.6
2023-04-15T08:10:01.844Z,0.7
2023-04-15T08:15:01.524Z,0.9
2023-04-15T08:20:02.116Z,1.0
2023-04-15T08:30:06.139Z,0.4
2023-04-15T08:35:01.057Z,0.3
2023-04-15T08:45:02.951Z,0.2
2023-04-15T09:00:06.655Z,0.2
2023-04-15T09:10:01.185Z,0.5
2023-04-15T09:15:01.796Z,0.5
2023-04-15T09:30:01.489Z,0.5
2023-04-15T09:40:01.069Z,0.2
2023-04-15T09:45:16.417Z,0.4
2023-04-15T09:50:01.192Z,0.6
2023-04-15T09:55:01.097Z,1.0
2023-04-15T10:00:03.371Z,1.2
2023-04-15T10:05:01.149Z,1.0
2023-04-15T10:10:01.111Z,0.8
2023-04-15T10:15:03.590Z,0.6
2023-04-15T10:20:01.057Z,1.8
2023-04-15T10:25:01.077Z,3.8
2023-04-15T10:30:01.874Z,5.8
2023-04-15T10:35:01.076Z,7.7
2023-04-15T10:40:16.447Z,9.8
2023-04-15T10:45:01.471Z,10.2
2023-04-15T10:55:01.127Z,10.8
2023-04-15T11:00:08.530Z,10.9
2023-04-15T11:05:01.092Z,11.1
2023-04-15T11:10:01.053Z,11.0
2023-04-15T11:15:16.508Z,11.1
2023-04-15T11:20:01.047Z,11.4
2023-04-15T11:25:01.064Z,11.8
2023-04-15T11:30:14.376Z,12.3
2023-04-15T11:35:01.181Z,12.7
2023-04-15T11:40:02.347Z,13.3
2023-04-15T11:45:09.622Z,12.7
2023-04-15T11:50:01.076Z,12.6
2023-04-15T11:55:01.091Z,12.8
2023-04-15T12:00:01.581Z,13.4
2023-04-15T12:05:01.117Z,12.7
2023-04-15T12:10:01.123Z,13.8
2023-04-15T12:15:01.569Z,13.4
2023-04-15T12:20:01.053Z,12.6
2023-04-15T12:25:01.066Z,12.3
2023-04-15T12:30:04.135Z,12.2
2023-04-15T12:35:01.054Z,10.6
2023-04-15T12:40:01.071Z,11.0
2023-04-15T12:45:01.775Z,10.5
2023-04-15T12:50:01.092Z,10.3
2023-04-15T12:55:01.065Z,10.4
2023-04-15T13:00:01.667Z,10.6
2023-04-15T13:05:01.223Z,10.4
2023-04-15T13:10:01.090Z,9.8
2023-04-15T13:15:06.450Z,9.6
2023-04-15T13:20:01.092Z,9.1
2023-04-15T13:25:01.061Z,8.6
2023-04-15T13:30:01.548Z,7.9
2023-04-15T13:35:01.062Z,8.5
2023-04-15T13:40:01.093Z,8.8
2023-04-15T13:45:01.738Z,9.4
2023-04-15T13:50:01.130Z,9.5
2023-04-15T13:55:07.346Z,10.4
2023-04-15T14:00:02.205Z,10.3
2023-04-15T14:05:01.594Z,9.5
2023-04-15T14:10:01.129Z,8.7
2023-04-15T14:15:01.626Z,8.4
2023-04-15T14:20:01.054Z,8.0
2023-04-15T14:25:01.089Z,7.8
2023-04-15T14:30:02.085Z,10.8
2023-04-15T14:35:01.459Z,11.9
2023-04-15T14:40:01.072Z,13.2
2023-04-15T14:45:01.865Z,13.7
2023-04-15T14:50:01.081Z,14.0
2023-04-15T14:55:01.168Z,11.8
2023-04-15T15:00:03.340Z,11.0
2023-04-15T15:05:02.886Z,10.0
2023-04-15T15:10:01.138Z,9.1
2023-04-15T15:15:29.280Z,9.0
2023-04-15T15:25:01.093Z,8.9
2023-04-15T15:30:01.549Z,8.4
2023-04-15T15:35:01.068Z,8.5
2023-04-15T15:40:01.068Z,9.0
2023-04-15T15:45:02.722Z,8.1
2023-04-15T15:50:06.203Z,8.4
2023-04-15T15:55:01.076Z,9.9
2023-04-15T16:00:13.663Z,10.2
2023-04-15T16:05:01.095Z,10.1
2023-04-15T16:10:01.195Z,10.5
2023-04-15T16:15:01.505Z,10.6
2023-04-15T16:20:02.525Z,9.9
2023-04-15T16:25:01.061Z,10.1
2023-04-15T16:30:01.824Z,11.0
2023-04-15T16:35:01.081Z,12.3
2023-04-15T16:40:01.096Z,12.1
2023-04-15T16:45:01.873Z,12.6
2023-04-15T16:50:01.081Z,12.9
2023-04-15T16:55:01.067Z,12.0
2023-04-15T17:00:01.676Z,11.1
2023-04-15T17:05:01.059Z,11.4
2023-04-15T17:10:01.083Z,11.7
2023-04-15T17:15:01.632Z,11.8
2023-04-15T17:20:01.060Z,12.4
2023-04-15T17:25:01.743Z,12.6
2023-04-15T17:30:01.765Z,12.0
2023-04-15T17:35:01.068Z,11.8
2023-04-15T17:40:01.195Z,11.3
2023-04-15T17:45:02.029Z,12.5
2023-04-15T17:50:02.364Z,12.6
2023-04-15T17:55:01.060Z,13.9
2023-04-15T18:00:01.576Z,13.8
2023-04-15T18:05:02.498Z,15.7
2023-04-15T18:10:01.078Z,15.0
2023-04-15T18:15:01.752Z,15.6
2023-04-15T18:20:01.534Z,19.4
2023-04-15T18:25:01.157Z,25.6
2023-04-15T18:30:01.574Z,32.1
2023-04-15T18:35:01.050Z,39.0
2023-04-15T18:40:01.078Z,41.4
2023-04-15T18:45:01.592Z,37.8
2023-04-15T18:50:01.726Z,32.3
2023-04-15T18:55:01.060Z,25.0
2023-04-15T19:00:01.810Z,17.7
2023-04-15T19:05:01.062Z,15.6
2023-04-15T19:15:01.975Z,15.8
2023-04-15T19:20:01.046Z,15.5
2023-04-15T19:25:02.238Z,15.8
2023-04-15T19:30:01.596Z,15.3
2023-04-15T19:35:01.083Z,16.0
2023-04-15T19:40:01.073Z,16.1
2023-04-15T19:45:01.467Z,17.6
2023-04-15T19:50:01.060Z,17.9
2023-04-15T19:55:03.676Z,19.1
2023-04-15T20:00:01.820Z,19.5
2023-04-15T20:05:01.181Z,19.7
2023-04-15T20:10:01.118Z,19.0
2023-04-15T20:15:02.459Z,20.4
2023-04-15T20:20:01.064Z,21.0
2023-04-15T20:25:01.858Z,20.8
2023-04-15T20:31:01.109Z,22.0
2023-04-15T20:36:01.062Z,22.9
2023-04-15T20:41:01.116Z,22.1
2023-04-15T20:46:06.963Z,21.4
2023-04-15T20:51:01.076Z,21.2
2023-04-15T20:56:01.450Z,22.6
2023-04-15T21:01:01.120Z,23.7
2023-04-15T21:06:01.079Z,24.6
2023-04-15T21:11:01.079Z,24.2
2023-04-15T21:16:01.134Z,24.1
2023-04-15T21:21:01.072Z,21.6
2023-04-15T21:26:01.059Z,19.4
2023-04-15T21:31:01.085Z,17.6
2023-04-15T21:36:01.071Z,18.4
2023-04-15T21:41:01.124Z,17.9
2023-04-15T21:46:21.586Z,17.3
2023-04-15T21:51:01.125Z,20.0
2023-04-15T22:01:01.093Z,20.3
2023-04-15T22:06:01.491Z,22.0
2023-04-15T22:11:01.092Z,23.5
2023-04-15T22:16:01.067Z,23.3
2023-04-15T22:21:01.131Z,22.5
2023-04-15T22:26:01.167Z,24.0
2023-04-15T22:31:01.096Z,23.6
2023-04-15T22:36:01.149Z,23.3
2023-04-15T22:41:01.055Z,22.6
2023-04-15T22:46:01.952Z,24.4
2023-04-15T22:51:01.099Z,23.1
2023-04-15T22:56:01.052Z,23.7
2023-04-15T23:01:01.054Z,27.5
2023-04-15T23:06:01.056Z,28.4
2023-04-15T23:11:01.630Z,28.6
2023-04-15T23:16:01.088Z,28.7
2023-04-15T23:21:01.110Z,28.2
2023-04-15T23:26:01.057Z,24.8
2023-04-15T23:31:01.086Z,25.5
2023-04-15T23:36:01.076Z,26.6
2023-04-15T23:41:01.064Z,27.8
2023-04-15T23:46:01.059Z,28.4
2023-04-15T23:51:01.213Z,30.6
2023-04-15T23:56:01.065Z,28.6
